Time;durP1;ratioP1;P1;durP2;ratioP2;P2;SDS_P1;SDS_P2;PMS_P1;PMS_P2;Temp;Humidity;BMP_temperature;BMP_pressure;BME280_temperature;BME280_humidity;BME280_pressure;Samples;Min_cycle;Max_cycle;Signal;HPM_P1;HPM_P2
2022/12/08 00:01:16;;;;;;;;;61.75;51.25;;;;;6.19;73.46;100581.47;5100342;27;45472;-76
2022/12/08 00:03:42;;;;;;;;;69.00;55.50;;;;;6.17;73.25;100582.41;5101675;27;45445;-73
2022/12/08 00:09:23;;;;;;;;;50.25;43.75;;;;;6.14;73.64;100570.28;5099064;27;45353;-76
2022/12/08 00:11:56;;;;;;;;;44.25;39.00;;;;;6.13;73.02;100563.34;5099607;27;45269;-71
2022/12/08 00:14:24;;;;;;;;;51.25;42.25;;;;;6.15;73.35;100561.53;5114393;27;45478;-74
2022/12/08 00:16:49;;;;;;;;;46.25;40.00;;;;;6.10;73.52;100556.44;5100596;27;45441;-75
2022/12/08 00:19:14;;;;;;;;;51.00;41.75;;;;;5.99;74.00;100535.75;5095279;27;45490;-72
2022/12/08 00:21:40;;;;;;;;;44.00;39.00;;;;;6.07;74.14;100553.91;5077529;27;45441;-72
2022/12/08 00:24:06;;;;;;;;;45.25;40.50;;;;;5.86;73.06;100523.84;5079213;27;46154;-73
2022/12/08 00:26:32;;;;;;;;;45.25;40.25;;;;;6.04;74.39;100550.47;5079366;27;45264;-70
2022/12/08 00:28:57;;;;;;;;;47.75;41.50;;;;;6.05;74.43;100552.19;5093641;27;45443;-71
2022/12/08 00:31:23;;;;;;;;;50.50;42.50;;;;;5.81;73.56;100512.66;5079225;27;45740;-73
2022/12/08 00:33:48;;;;;;;;;40.00;36.75;;;;;5.98;74.30;100535.78;5083745;27;46032;-75
2022/12/08 00:36:14;;;;;;;;;48.00;40.75;;;;;6.02;73.29;100533.97;5080772;27;45580;-74
2022/12/08 00:38:41;;;;;;;;;50.00;43.25;;;;;6.01;74.55;100538.38;5079327;27;45462;-73
2022/12/08 00:41:11;;;;;;;;;44.75;39.50;;;;;6.05;73.77;100542.63;5064147;27;45546;-69
2022/12/08 00:43:37;;;;;;;;;51.50;43.50;;;;;6.07;74.38;100540.84;5080759;27;46283;-70
2022/12/08 00:46:02;;;;;;;;;49.00;42.00;;;;;6.08;73.88;100533.84;5070016;27;45351;-73
2022/12/08 00:48:27;;;;;;;;;53.75;45.50;;;;;6.08;74.78;100533.84;5070461;27;45381;-70
2022/12/08 00:50:53;;;;;;;;;45.75;40.25;;;;;6.08;74.20;100531.22;5068368;27;45551;-71
2022/12/08 00:53:18;;;;;;;;;51.25;42.50;;;;;6.07;74.76;100524.28;5057257;28;46012;-68
2022/12/08 00:55:43;;;;;;;;;54.00;45.00;;;;;6.05;74.50;100521.72;5056640;27;45391;-68
2022/12/08 00:58:09;;;;;;;;;55.50;45.75;;;;;6.09;73.94;100530.34;5061709;27;45845;-67
2022/12/08 01:00:34;;;;;;;;;54.00;46.00;;;;;6.07;73.74;100530.41;5057323;27;45480;-68
2022/12/08 01:03:00;;;;;;;;;51.25;42.50;;;;;6.08;74.42;100520.78;5057247;28;45347;-68
2022/12/08 01:05:25;;;;;;;;;50.25;42.50;;;;;6.08;74.23;100524.28;5059314;28;45366;-67
2022/12/08 01:07:50;;;;;;;;;57.00;47.75;;;;;6.08;74.29;100512.97;5059026;28;45534;-68
2022/12/08 01:10:16;;;;;;;;;54.75;46.00;;;;;6.06;74.27;100509.53;5057754;27;45478;-73
2022/12/08 01:12:41;;;;;;;;;58.25;48.00;;;;;5.98;74.10;100500.06;5067717;27;45434;-74
2022/12/08 01:15:07;;;;;;;;;60.50;50.00;;;;;6.02;74.74;100506.13;5076806;27;45339;-74
2022/12/08 01:17:33;;;;;;;;;60.75;49.75;;;;;5.97;74.83;100493.13;5077866;27;45595;-73
2022/12/08 01:19:58;;;;;;;;;65.75;53.00;;;;;5.97;74.69;100498.34;5078028;27;45353;-73
2022/12/08 01:22:24;;;;;;;;;64.00;53.00;;;;;5.95;74.79;100497.53;5076378;27;45445;-74
2022/12/08 01:24:49;;;;;;;;;57.00;47.75;;;;;5.93;74.75;100495.88;5079452;27;45265;-73
2022/12/08 01:27:15;;;;;;;;;64.50;53.50;;;;;5.86;75.19;100487.31;5077861;27;45436;-73
2022/12/08 01:29:41;;;;;;;;;64.50;53.25;;;;;5.83;74.46;100487.38;5077679;27;45350;-72
2022/12/08 01:32:07;;;;;;;;;69.25;55.75;;;;;5.70;75.34;100477.19;5077593;27;49454;-75
2022/12/08 01:34:33;;;;;;;;;67.00;54.00;;;;;5.74;75.88;100485.81;5078381;27;45291;-73
2022/12/08 01:36:59;;;;;;;;;65.25;53.25;;;;;5.68;75.47;100468.53;5077763;27;45420;-74
2022/12/08 01:39:25;;;;;;;;;67.50;55.00;;;;;5.65;76.28;100472.94;5078762;27;45461;-73
2022/12/08 01:41:50;;;;;;;;;70.75;56.50;;;;;5.63;76.00;100473.00;5075652;27;48002;-74
2022/12/08 01:44:15;;;;;;;;;65.00;53.00;;;;;5.69;76.38;100485.91;5076851;27;45345;-73
2022/12/08 01:46:43;;;;;;;;;69.00;55.50;;;;;5.69;76.06;100485.91;5077393;27;45401;-74
2022/12/08 01:49:18;;;;;;;;;68.25;54.75;;;;;5.73;76.31;100491.91;5077441;27;45314;-74
2022/12/08 01:51:49;;;;;;;;;63.75;53.00;;;;;5.74;75.79;100492.78;5078652;27;46333;-72
2022/12/08 01:54:15;;;;;;;;;66.75;54.75;;;;;5.74;75.99;100488.41;5077482;28;45335;-73
2022/12/08 01:57:04;;;;;;;;;68.75;55.00;;;;;5.73;75.96;100484.09;5079221;27;45301;-72
2022/12/08 01:59:33;;;;;;;;;69.50;56.50;;;;;5.65;76.21;100478.16;5079985;27;45451;-73
2022/12/08 02:01:59;;;;;;;;;66.00;54.75;;;;;5.70;76.42;100482.41;5078852;27;46122;-74
2022/12/08 02:04:24;;;;;;;;;68.25;55.50;;;;;5.71;76.36;100480.66;5079844;27;45362;-72
2022/12/08 02:06:51;;;;;;;;;67.00;55.25;;;;;5.76;76.25;100475.34;5078071;27;45370;-73
2022/12/08 02:09:18;;;;;;;;;69.75;54.50;;;;;5.65;75.69;100460.78;5077963;27;45434;-71
2022/12/08 02:11:44;;;;;;;;;66.50;54.25;;;;;5.77;76.22;100471.84;5078735;28;45353;-73
2022/12/08 02:14:12;;;;;;;;;66.75;54.50;;;;;5.49;76.70;100433.31;5079092;27;45358;-74
2022/12/08 02:16:49;;;;;;;;;63.00;52.25;;;;;5.67;75.38;100466.81;5077293;27;45322;-73
2022/12/08 02:19:43;;;;;;;;;54.00;43.00;;;;;5.68;76.42;100473.75;5076468;27;45525;-73
2022/12/08 02:22:26;;;;;;;;;62.50;51.25;;;;;5.68;76.75;100481.59;5079946;27;46099;-71
2022/12/08 02:25:06;;;;;;;;;62.75;51.00;;;;;5.68;76.13;100470.28;5077753;27;45436;-73
2022/12/08 02:27:40;;;;;;;;;62.50;51.00;;;;;5.67;76.39;100472.03;5077990;27;45322;-72
2022/12/08 02:30:23;;;;;;;;;54.75;45.50;;;;;5.69;76.19;100469.38;5078315;28;45569;-73
2022/12/08 02:33:20;;;;;;;;;63.75;51.50;;;;;5.71;75.96;100467.59;5076389;28;45326;-73
2022/12/08 02:36:10;;;;;;;;;59.50;50.25;;;;;5.69;76.35;100458.94;5076248;28;45506;-73
2022/12/08 02:38:47;;;;;;;;;61.50;48.50;;;;;5.62;76.35;100445.19;5076816;27;45339;-72
2022/12/08 02:41:24;;;;;;;;;58.50;48.75;;;;;5.70;75.59;100458.94;5076991;27;45253;-73
2022/12/08 02:44:05;;;;;;;;;57.75;48.75;;;;;5.65;75.85;100449.47;5078660;27;45413;-77
2022/12/08 02:46:46;;;;;;;;;58.00;45.50;;;;;5.68;75.76;100452.00;5079786;27;45214;-71
2022/12/08 02:49:14;;;;;;;;;59.00;48.00;;;;;5.68;75.97;100462.44;5079174;27;45387;-73
2022/12/08 02:51:39;;;;;;;;;58.50;48.00;;;;;5.59;75.81;100450.47;5077853;27;45992;-70
2022/12/08 02:54:05;;;;;;;;;54.25;45.25;;;;;5.64;75.64;100450.34;5076246;28;46292;-73
2022/12/08 02:56:58;;;;;;;;;56.00;48.00;;;;;5.62;75.38;100447.81;5074857;28;45638;-72
2022/12/08 03:00:12;;;;;;;;;57.25;46.25;;;;;5.62;75.80;100445.19;5076853;27;45303;-72
2022/12/08 03:03:27;;;;;;;;;54.00;46.50;;;;;5.41;75.87;100404.75;5036131;28;45358;-75
2022/12/08 03:05:53;;;;;;;;;54.75;45.50;;;;;5.67;75.01;100438.13;5057710;28;45487;-74
2022/12/08 03:08:41;;;;;;;;;58.50;48.00;;;;;5.69;75.85;100431.13;5057613;28;45348;-73
2022/12/08 03:11:20;;;;;;;;;53.00;45.25;;;;;5.68;75.20;100431.13;5070644;27;45325;-73
2022/12/08 03:13:51;;;;;;;;;55.00;46.50;;;;;5.68;75.24;100429.41;5076918;27;45500;-72
2022/12/08 03:16:23;;;;;;;;;56.50;46.75;;;;;5.64;74.93;100413.81;5074857;28;46251;-73
2022/12/08 03:18:55;;;;;;;;;52.00;43.50;;;;;5.63;75.32;100423.41;5077457;27;45426;-71
2022/12/08 03:21:21;;;;;;;;;56.50;47.50;;;;;5.61;75.72;100420.00;5075956;27;45547;-72
2022/12/08 03:23:52;;;;;;;;;57.50;46.75;;;;;5.58;75.15;100412.22;5076977;28;45444;-73
2022/12/08 03:26:25;;;;;;;;;53.25;45.75;;;;;5.53;75.01;100404.50;5077127;28;46404;-71
2022/12/08 03:28:51;;;;;;;;;54.50;45.25;;;;;5.49;74.90;100417.66;5075624;27;45275;-73
2022/12/08 03:31:18;;;;;;;;;53.50;44.25;;;;;5.39;74.59;100415.25;5076837;27;45248;-73
2022/12/08 03:33:50;;;;;;;;;59.50;49.00;;;;;5.33;75.44;100407.53;5078990;27;45608;-72
2022/12/08 03:36:16;;;;;;;;;55.25;47.75;;;;;5.29;75.24;100402.41;5092312;27;46208;-73
2022/12/08 03:38:44;;;;;;;;;59.75;48.75;;;;;5.26;75.07;100400.72;5075184;27;45323;-72
2022/12/08 03:41:17;;;;;;;;;48.75;42.25;;;;;5.21;74.87;100392.13;5074827;27;45430;-72
2022/12/08 03:43:43;;;;;;;;;54.25;46.00;;;;;5.14;75.05;100391.41;5076796;27;45222;-70
2022/12/08 03:46:08;;;;;;;;;54.00;45.50;;;;;5.22;75.46;100393.84;5076083;28;46334;-72
2022/12/08 03:48:33;;;;;;;;;56.50;47.75;;;;;5.19;75.41;100386.97;5075505;28;45515;-72
2022/12/08 03:50:59;;;;;;;;;52.75;43.50;;;;;5.17;75.60;100387.88;5076643;28;45447;-71
2022/12/08 03:53:24;;;;;;;;;55.50;47.00;;;;;5.16;75.68;100388.75;5075661;28;45342;-71
2022/12/08 03:55:49;;;;;;;;;55.75;45.00;;;;;5.09;74.86;100381.06;5075360;27;46272;-73
2022/12/08 03:58:15;;;;;;;;;57.00;47.50;;;;;5.09;75.36;100386.28;5077335;27;46011;-72
2022/12/08 04:00:40;;;;;;;;;56.75;47.50;;;;;5.02;75.62;100363.84;5078741;27;45360;-74
2022/12/08 04:03:05;;;;;;;;;60.50;51.25;;;;;5.12;75.66;100375.78;5091581;27;45320;-73
2022/12/08 04:05:31;;;;;;;;;63.00;49.50;;;;;5.12;75.81;100372.34;5075798;27;45437;-72
2022/12/08 04:07:57;;;;;;;;;51.25;43.25;;;;;5.08;75.55;100374.13;5076250;27;45405;-73
2022/12/08 04:10:22;;;;;;;;;58.50;48.00;;;;;5.04;75.88;100371.66;5076061;27;45373;-72
2022/12/08 04:12:47;;;;;;;;;56.50;47.00;;;;;5.05;76.20;100378.56;5076333;27;45386;-71
2022/12/08 04:15:13;;;;;;;;;57.50;46.50;;;;;5.00;75.92;100360.41;5075522;28;45419;-74
2022/12/08 04:17:38;;;;;;;;;53.75;46.00;;;;;5.10;76.16;100371.50;5076925;28;45244;-73
2022/12/08 04:20:04;;;;;;;;;58.75;47.00;;;;;5.12;75.57;100367.97;5078116;28;45311;-75
2022/12/08 04:22:29;;;;;;;;;58.50;48.50;;;;;5.15;75.53;100368.78;5077515;27;45446;-73
2022/12/08 04:24:55;;;;;;;;;54.50;45.50;;;;;5.11;75.20;100368.84;5080496;28;45330;-73
2022/12/08 04:27:20;;;;;;;;;52.25;43.00;;;;;5.01;75.18;100349.09;5078089;27;45270;-74
2022/12/08 04:29:45;;;;;;;;;52.25;44.00;;;;;5.09;75.65;100361.97;5079590;27;45336;-73
2022/12/08 04:32:11;;;;;;;;;54.25;46.25;;;;;5.05;75.62;100355.94;5079636;28;45563;-74
2022/12/08 04:34:36;;;;;;;;;56.25;47.25;;;;;5.04;75.58;100351.63;5079074;28;46004;-71
2022/12/08 04:37:01;;;;;;;;;56.00;46.75;;;;;5.01;75.69;100348.25;5078280;28;45196;-73
2022/12/08 04:39:27;;;;;;;;;55.00;46.00;;;;;5.04;75.00;100350.78;5078208;28;45224;-73
2022/12/08 04:41:52;;;;;;;;;56.75;46.00;;;;;4.97;75.64;100340.50;5076734;28;45468;-72
2022/12/08 04:44:17;;;;;;;;;55.00;46.50;;;;;5.05;75.46;100347.28;5093453;27;47539;-73
2022/12/08 04:46:43;;;;;;;;;50.00;43.00;;;;;4.98;75.20;100333.50;5078681;27;45245;-72
2022/12/08 04:49:08;;;;;;;;;52.50;44.00;;;;;5.02;75.35;100342.97;5078863;27;45298;-73
2022/12/08 04:51:33;;;;;;;;;51.25;42.75;;;;;4.95;75.43;100333.56;5079064;27;45387;-72
2022/12/08 04:54:00;;;;;;;;;51.75;43.50;;;;;4.95;75.47;100344.88;5078794;27;46318;-72
2022/12/08 04:56:25;;;;;;;;;55.00;44.75;;;;;4.87;75.58;100330.28;5079693;28;45928;-75
2022/12/08 04:58:51;;;;;;;;;50.50;43.50;;;;;4.86;75.63;100325.94;5095860;27;45848;-75
2022/12/08 05:01:16;;;;;;;;;54.25;44.25;;;;;4.77;75.86;100317.44;5081289;27;45289;-75
2022/12/08 05:03:41;;;;;;;;;54.50;46.25;;;;;4.82;75.92;100326.00;5078423;28;45429;-72
2022/12/08 05:06:11;;;;;;;;;53.25;44.75;;;;;4.79;76.21;100310.44;5077758;28;45464;-73
2022/12/08 05:08:36;;;;;;;;;54.75;46.25;;;;;4.77;76.22;100308.75;5076144;27;45463;-72
2022/12/08 05:11:07;;;;;;;;;45.75;41.00;;;;;4.77;76.06;100317.44;5078312;28;45557;-72
2022/12/08 05:13:32;;;;;;;;;55.25;45.75;;;;;4.77;75.89;100320.03;5081410;27;46527;-72
2022/12/08 05:16:16;;;;;;;;;54.50;44.00;;;;;4.78;76.30;100321.75;5093738;27;45456;-72
2022/12/08 05:18:42;;;;;;;;;54.50;46.00;;;;;4.69;76.10;100301.09;5078203;27;45308;-72
2022/12/08 05:21:07;;;;;;;;;54.25;46.75;;;;;4.81;75.54;100320.84;5077975;27;45515;-72
2022/12/08 05:23:33;;;;;;;;;48.75;42.25;;;;;4.80;76.17;100314.75;5076506;27;46850;-73
2022/12/08 05:25:59;;;;;;;;;37.25;35.25;;;;;4.62;75.95;100283.88;5081103;27;45568;-72
2022/12/08 05:28:24;;;;;;;;;55.25;45.50;;;;;4.87;75.87;100319.84;5078767;28;45271;-72
2022/12/08 05:30:50;;;;;;;;;53.00;44.00;;;;;4.90;75.88;100311.97;5079130;27;45245;-71
2022/12/08 05:33:16;;;;;;;;;56.25;47.25;;;;;4.95;76.14;100313.59;5077959;27;45224;-71
2022/12/08 05:35:41;;;;;;;;;51.75;43.25;;;;;4.95;75.87;100297.97;5075839;28;45335;-72
2022/12/08 05:38:08;;;;;;;;;53.25;41.75;;;;;5.00;75.72;100303.06;5078197;27;45386;-71
2022/12/08 05:40:33;;;;;;;;;52.50;45.00;;;;;5.06;75.39;100305.53;5078294;27;45499;-72
2022/12/08 05:42:58;;;;;;;;;52.00;44.75;;;;;5.04;75.31;100302.09;5076895;28;45337;-72
2022/12/08 05:45:24;;;;;;;;;51.00;43.25;;;;;5.09;75.01;100312.44;5078091;27;45387;-73
2022/12/08 05:47:49;;;;;;;;;52.50;45.50;;;;;5.09;75.67;100307.22;5077123;27;45257;-72
2022/12/08 05:50:16;;;;;;;;;42.25;38.75;;;;;5.10;75.06;100316.75;5077351;27;45524;-73
2022/12/08 05:52:41;;;;;;;;;52.00;44.50;;;;;5.09;75.77;100310.66;5092358;27;46921;-73
2022/12/08 05:55:07;;;;;;;;;51.75;44.75;;;;;5.11;75.45;100314.09;5076604;27;45436;-73
2022/12/08 05:57:32;;;;;;;;;49.25;41.75;;;;;5.15;75.42;100316.63;5076893;28;45270;-73
2022/12/08 05:59:58;;;;;;;;;53.25;44.25;;;;;5.18;76.23;100324.41;5077045;27;45442;-70
2022/12/08 06:02:24;;;;;;;;;49.25;42.00;;;;;5.21;76.11;100314.78;5077853;27;46891;-74
2022/12/08 06:04:50;;;;;;;;;49.75;41.75;;;;;5.25;75.84;100319.03;5078360;27;45727;-73
2022/12/08 06:07:16;;;;;;;;;51.50;42.25;;;;;5.25;75.74;100308.59;5077660;27;45401;-71
2022/12/08 06:09:41;;;;;;;;;50.50;42.75;;;;;5.22;76.24;100302.56;5077004;27;45238;-72
2022/12/08 06:12:06;;;;;;;;;54.25;45.50;;;;;5.32;75.85;100314.53;5076272;27;46326;-72
2022/12/08 06:14:32;;;;;;;;;48.00;39.50;;;;;5.32;75.91;100301.50;5076212;27;45362;-71
2022/12/08 06:16:57;;;;;;;;;54.25;43.50;;;;;5.33;75.96;100298.00;5092188;27;50783;-72
2022/12/08 06:19:22;;;;;;;;;49.00;41.50;;;;;5.35;75.40;100301.44;5077307;28;45566;-73
2022/12/08 06:21:48;;;;;;;;;51.75;44.00;;;;;5.35;75.29;100297.94;5078062;27;45460;-72
2022/12/08 06:24:13;;;;;;;;;48.75;42.25;;;;;5.37;75.98;100291.81;5091784;27;45321;-73
2022/12/08 06:26:40;;;;;;;;;54.25;43.50;;;;;5.32;75.14;100288.47;5094312;27;45455;-72
2022/12/08 06:29:06;;;;;;;;;51.50;44.25;;;;;5.32;75.43;100293.69;5078299;27;45538;-72
2022/12/08 06:31:31;;;;;;;;;59.25;48.75;;;;;5.30;75.39;100298.06;5076325;27;46090;-73
2022/12/08 06:33:56;;;;;;;;;52.75;42.50;;;;;5.32;75.10;100290.19;5075969;28;45382;-74
2022/12/08 06:36:25;;;;;;;;;54.75;45.50;;;;;5.31;75.58;100291.09;5076022;27;48891;-71
2022/12/08 06:38:51;;;;;;;;;55.25;46.50;;;;;5.31;75.45;100289.34;5075655;27;45196;-71
2022/12/08 06:41:16;;;;;;;;;60.25;48.25;;;;;5.18;75.33;100287.88;5076657;27;46333;-72
2022/12/08 06:43:42;;;;;;;;;48.50;40.50;;;;;5.18;75.44;100288.75;5076659;27;45334;-71
2022/12/08 06:46:11;;;;;;;;;48.50;42.00;;;;;5.08;75.31;100279.44;5076379;27;45716;-72
2022/12/08 06:48:37;;;;;;;;;55.00;47.75;;;;;5.09;75.26;100289.81;5077178;27;45354;-70
2022/12/08 06:51:14;;;;;;;;;54.00;45.75;;;;;5.09;75.76;100287.22;5078048;27;45498;-73
2022/12/08 06:53:41;;;;;;;;;51.00;43.00;;;;;5.06;75.65;100282.06;5079030;27;45210;-72
2022/12/08 06:56:07;;;;;;;;;52.25;42.25;;;;;5.01;75.25;100289.13;5078279;27;45187;-70
2022/12/08 06:58:34;;;;;;;;;48.00;40.00;;;;;4.94;76.05;100291.03;5075637;28;45606;-70
2022/12/08 07:01:07;;;;;;;;;44.50;39.25;;;;;4.92;75.25;100289.31;5076889;27;45472;-73
2022/12/08 07:03:34;;;;;;;;;49.50;42.25;;;;;4.77;75.26;100282.69;5076960;27;45324;-71
2022/12/08 07:05:59;;;;;;;;;48.75;40.50;;;;;4.76;75.43;100289.66;5076317;27;45400;-71
2022/12/08 07:08:24;;;;;;;;;50.00;42.75;;;;;4.78;75.55;100287.03;5075367;28;45311;-73
2022/12/08 07:10:50;;;;;;;;;49.75;42.25;;;;;4.75;75.51;100280.13;5076444;27;45407;-72
2022/12/08 07:13:15;;;;;;;;;45.50;40.00;;;;;4.62;75.82;100268.25;5075409;28;45354;-72
2022/12/08 07:15:41;;;;;;;;;45.25;39.00;;;;;4.51;75.14;100245.00;5075632;27;45400;-73
2022/12/08 07:18:06;;;;;;;;;50.75;42.00;;;;;4.71;75.53;100288.88;5078242;27;45573;-72
2022/12/08 07:20:31;;;;;;;;;42.25;37.00;;;;;4.67;75.53;100275.06;5074605;28;47047;-71
2022/12/08 07:22:57;;;;;;;;;46.00;40.75;;;;;4.67;76.19;100276.81;5074743;28;45393;-72
2022/12/08 07:25:22;;;;;;;;;37.00;34.00;;;;;4.71;75.76;100270.66;5076371;27;45522;-72
2022/12/08 07:27:50;;;;;;;;;50.75;43.00;;;;;4.67;75.73;100264.63;5074330;27;45517;-72
2022/12/08 07:30:15;;;;;;;;;47.25;40.50;;;;;4.74;75.86;100277.53;5074859;27;46372;-71
2022/12/08 07:32:41;;;;;;;;;57.25;45.75;;;;;4.75;75.49;100280.13;5074446;28;45277;-72
2022/12/08 07:35:07;;;;;;;;;53.50;44.00;;;;;4.70;75.00;100273.28;5076774;28;45414;-72
2022/12/08 07:37:33;;;;;;;;;62.75;50.25;;;;;4.75;75.86;100285.34;5076424;27;45399;-72
2022/12/08 07:39:59;;;;;;;;;44.50;39.50;;;;;4.78;75.92;100285.28;5075678;27;45768;-73
2022/12/08 07:42:24;;;;;;;;;60.50;50.25;;;;;4.77;75.77;100291.38;5074945;28;45454;-73
2022/12/08 07:44:50;;;;;;;;;49.75;42.25;;;;;4.77;75.91;100291.38;5075002;27;45394;-72
2022/12/08 07:47:15;;;;;;;;;50.75;42.75;;;;;4.79;75.90;100289.59;5075069;27;45508;-71
2022/12/08 07:49:41;;;;;;;;;48.00;40.75;;;;;4.85;75.03;100293.84;5074363;28;45375;-72
2022/12/08 07:52:06;;;;;;;;;42.50;38.00;;;;;4.87;75.60;100288.56;5075420;28;45851;-72
2022/12/08 07:54:31;;;;;;;;;45.75;39.25;;;;;4.84;75.07;100289.50;5074619;27;45534;-72
2022/12/08 07:56:57;;;;;;;;;49.25;42.25;;;;;4.82;75.06;100289.53;5074863;28;45450;-70
2022/12/08 07:59:23;;;;;;;;;51.25;43.25;;;;;4.83;75.09;100285.19;5076799;27;45488;-73
2022/12/08 08:01:50;;;;;;;;;46.50;39.00;;;;;4.80;74.98;100275.66;5077850;27;45465;-74
2022/12/08 08:04:15;;;;;;;;;49.25;41.50;;;;;4.83;75.11;100274.75;5078127;27;45446;-72
2022/12/08 08:06:40;;;;;;;;;50.00;41.50;;;;;4.83;74.86;100277.38;5078818;27;45251;-72
2022/12/08 08:09:06;;;;;;;;;49.75;43.00;;;;;4.77;75.09;100262.72;5077918;27;46203;-71
2022/12/08 08:11:31;;;;;;;;;47.25;40.75;;;;;4.85;75.07;100275.59;5078021;27;45302;-71
2022/12/08 08:13:57;;;;;;;;;64.50;53.50;;;;;4.76;74.53;100270.53;5078415;28;45219;-72
2022/12/08 08:16:22;;;;;;;;;58.25;48.75;;;;;4.78;75.28;100269.63;5093523;27;45312;-73
2022/12/08 08:18:49;;;;;;;;;48.00;41.00;;;;;4.78;74.89;100264.41;5077899;27;46295;-73
2022/12/08 08:21:15;;;;;;;;;42.75;38.75;;;;;4.84;74.93;100268.66;5078028;27;45552;-72
2022/12/08 08:23:40;;;;;;;;;52.50;44.50;;;;;4.93;74.75;100278.00;5078129;27;45445;-71
2022/12/08 08:26:05;;;;;;;;;45.00;40.00;;;;;4.91;74.43;100266.75;5078771;28;45350;-71
2022/12/08 08:28:31;;;;;;;;;49.75;43.25;;;;;4.91;74.65;100269.38;5078578;28;45351;-71
2022/12/08 08:30:58;;;;;;;;;50.75;43.00;;;;;4.93;74.74;100271.06;5080671;27;45424;-76
2022/12/08 08:33:26;;;;;;;;;50.25;42.50;;;;;4.94;74.13;100275.38;5083168;27;46520;-69
2022/12/08 08:35:52;;;;;;;;;45.00;39.75;;;;;4.97;74.60;100262.28;5080268;27;45335;-70
2022/12/08 08:38:17;;;;;;;;;44.25;38.00;;;;;5.06;73.98;100269.03;5077602;27;46124;-70
2022/12/08 08:40:43;;;;;;;;;45.50;39.00;;;;;5.09;73.61;100263.75;5077458;27;45191;-71
2022/12/08 08:43:08;;;;;;;;;44.00;39.50;;;;;5.08;74.21;100262.03;5077547;27;45222;-70
2022/12/08 08:45:34;;;;;;;;;48.75;41.25;;;;;5.12;73.34;100248.03;5076570;27;45539;-70
2022/12/08 08:48:00;;;;;;;;;40.50;36.00;;;;;5.16;73.47;100258.38;5076992;27;47285;-70
2022/12/08 08:50:25;;;;;;;;;48.75;42.00;;;;;5.16;73.23;100250.56;5079870;27;45350;-71
2022/12/08 08:52:51;;;;;;;;;47.00;40.50;;;;;5.18;73.72;100251.38;5079316;27;45446;-71
2022/12/08 08:55:17;;;;;;;;;40.75;37.50;;;;;5.24;72.71;100248.63;5079597;27;45295;-70
2022/12/08 08:57:42;;;;;;;;;49.00;39.50;;;;;5.24;73.10;100253.84;5078776;27;47305;-69
2022/12/08 09:00:09;;;;;;;;;45.50;39.00;;;;;5.28;73.51;100252.88;5076167;27;45470;-70
2022/12/08 09:02:36;;;;;;;;;45.50;38.50;;;;;5.30;72.73;100247.66;5077415;27;45276;-70
2022/12/08 09:05:02;;;;;;;;;38.25;36.25;;;;;5.32;72.73;100251.06;5077545;27;45268;-71
2022/12/08 09:07:27;;;;;;;;;43.75;37.50;;;;;5.28;72.34;100252.88;5077679;27;45341;-70
2022/12/08 09:09:53;;;;;;;;;36.75;34.75;;;;;5.24;72.41;100248.63;5077266;27;45278;-71
2022/12/08 09:12:18;;;;;;;;;37.25;34.25;;;;;5.26;72.25;100246.84;5076408;28;45415;-72
2022/12/08 09:14:44;;;;;;;;;48.25;40.75;;;;;5.17;71.99;100232.28;5079134;27;45561;-70
2022/12/08 09:17:10;;;;;;;;;43.00;38.50;;;;;5.21;72.37;100246.97;5078407;27;46250;-70
2022/12/08 09:19:35;;;;;;;;;48.25;41.00;;;;;5.26;71.91;100254.66;5078029;27;45548;-72
2022/12/08 09:22:01;;;;;;;;;45.50;40.00;;;;;5.25;72.33;100247.75;5078056;27;45379;-72
2022/12/08 09:24:26;;;;;;;;;39.00;34.25;;;;;5.22;72.54;100237.38;5076279;27;45543;-71
2022/12/08 09:26:52;;;;;;;;;30.75;30.50;;;;;5.28;71.84;100255.50;5073319;27;47490;-70
2022/12/08 09:29:17;;;;;;;;;42.75;39.00;;;;;5.32;72.10;100251.06;5076962;27;45331;-70
2022/12/08 09:31:42;;;;;;;;;41.50;38.50;;;;;5.32;71.86;100243.25;5076689;27;45300;-70
2022/12/08 09:34:10;;;;;;;;;41.00;37.25;;;;;5.34;71.74;100251.91;5076974;27;45456;-70
2022/12/08 09:36:36;;;;;;;;;44.75;39.00;;;;;5.31;71.34;100239.81;5076712;27;45459;-70
2022/12/08 09:39:02;;;;;;;;;48.00;41.75;;;;;5.38;71.47;100243.97;5076447;27;45229;-70
2022/12/08 09:41:32;;;;;;;;;44.50;39.50;;;;;5.36;70.56;100243.16;5077131;27;45245;-70
2022/12/08 09:44:16;;;;;;;;;30.50;30.25;;;;;5.37;71.48;100244.00;5077648;27;45627;-72
2022/12/08 09:46:42;;;;;;;;;41.00;38.00;;;;;5.31;71.28;100231.97;5079450;27;45500;-71
2022/12/08 09:49:15;;;;;;;;;49.75;42.50;;;;;5.39;70.90;100250.03;5077667;27;45523;-71
2022/12/08 09:51:43;;;;;;;;;42.00;37.75;;;;;5.35;71.14;100241.44;5076636;27;45357;-70
2022/12/08 09:54:19;;;;;;;;;35.25;34.25;;;;;5.33;71.14;100243.22;5075802;27;45308;-70
2022/12/08 09:56:47;;;;;;;;;39.25;36.00;;;;;5.32;70.59;100233.69;5076604;27;45350;-69
2022/12/08 09:59:24;;;;;;;;;30.50;30.00;;;;;5.33;70.49;100219.75;5075491;28;45399;-70
2022/12/08 10:01:50;;;;;;;;;37.00;35.25;;;;;5.43;70.88;100224.75;5076894;27;45287;-70
2022/12/08 10:04:19;;;;;;;;;41.00;37.25;;;;;5.46;70.42;100212.47;5076427;27;45371;-70
2022/12/08 10:07:13;;;;;;;;;34.25;32.75;;;;;5.51;70.76;100214.97;5076260;27;46211;-70
2022/12/08 10:10:15;;;;;;;;;41.50;37.00;;;;;5.54;70.87;100215.75;5077306;28;45369;-70
2022/12/08 10:13:07;;;;;;;;;45.25;38.75;;;;;5.60;70.98;100208.66;5077649;27;45448;-70
2022/12/08 10:15:51;;;;;;;;;39.25;35.75;;;;;5.64;70.09;100211.16;5075383;27;45495;-70
2022/12/08 10:18:22;;;;;;;;;36.50;34.00;;;;;5.63;70.44;100205.97;5076382;27;45242;-69
2022/12/08 10:20:51;;;;;;;;;38.50;35.25;;;;;5.66;70.59;100203.28;5075723;27;45391;-71
2022/12/08 10:23:33;;;;;;;;;39.75;35.00;;;;;5.63;70.21;100193.78;5077435;27;45248;-69
2022/12/08 10:26:05;;;;;;;;;39.00;36.00;;;;;5.68;70.37;100201.47;5076165;27;45487;-69
2022/12/08 10:28:33;;;;;;;;;43.00;38.25;;;;;5.69;69.68;100198.84;5076236;28;45448;-70
2022/12/08 10:30:58;;;;;;;;;42.50;38.25;;;;;5.65;70.01;100189.38;5091967;27;45839;-70
2022/12/08 10:33:25;;;;;;;;;47.25;39.00;;;;;5.72;70.08;100192.66;5076267;27;45427;-71
2022/12/08 10:35:53;;;;;;;;;44.25;38.50;;;;;5.74;69.52;100185.66;5078489;27;45517;-70
2022/12/08 10:38:22;;;;;;;;;40.00;37.00;;;;;5.74;69.76;100175.22;5076241;27;46055;-71
2022/12/08 10:40:51;;;;;;;;;49.50;42.00;;;;;5.75;69.87;100176.09;5076355;27;45338;-70
2022/12/08 10:43:26;;;;;;;;;38.00;35.25;;;;;5.76;69.63;100168.19;5075174;27;45265;-70
2022/12/08 10:45:52;;;;;;;;;50.00;42.50;;;;;5.76;69.90;100169.97;5077096;27;45210;-69
2022/12/08 10:48:32;;;;;;;;;42.00;38.50;;;;;5.72;69.43;100163.97;5075888;27;45708;-71
2022/12/08 10:50:59;;;;;;;;;38.75;35.50;;;;;5.72;69.42;100163.13;5091499;27;46019;-70
2022/12/08 10:53:27;;;;;;;;;43.50;37.50;;;;;5.67;69.09;100158.88;5074511;27;45287;-70
2022/12/08 10:56:06;;;;;;;;;46.50;40.00;;;;;5.67;69.06;100164.09;5076543;27;45256;-71
2022/12/08 10:58:41;;;;;;;;;48.75;41.75;;;;;5.64;69.50;100148.53;5076415;27;47315;-70
2022/12/08 11:01:26;;;;;;;;;50.50;41.50;;;;;5.70;68.84;100158.81;5077379;27;45319;-70
2022/12/08 11:04:23;;;;;;;;;48.00;42.00;;;;;5.73;69.28;100159.63;5075445;28;45440;-71
2022/12/08 11:06:50;;;;;;;;;48.00;41.25;;;;;5.74;68.71;100149.13;5072262;28;45436;-70
2022/12/08 11:09:18;;;;;;;;;49.50;42.25;;;;;5.75;69.13;100150.00;5075685;27;46528;-70
2022/12/08 11:12:05;;;;;;;;;56.00;45.50;;;;;5.79;69.22;100149.00;5075571;27;45795;-71
2022/12/08 11:14:36;;;;;;;;;67.50;56.00;;;;;5.83;68.99;100140.19;5075529;27;45355;-69
2022/12/08 11:17:09;;;;;;;;;49.25;42.75;;;;;5.89;69.10;100129.59;5075672;27;45209;-70
2022/12/08 11:19:43;;;;;;;;;52.25;43.75;;;;;5.93;69.83;100131.22;5075736;27;46073;-70
2022/12/08 11:22:21;;;;;;;;;49.75;42.50;;;;;5.99;68.52;100131.03;5075421;27;45532;-73
2022/12/08 11:24:56;;;;;;;;;48.00;40.75;;;;;6.03;68.87;100130.97;5074294;27;45275;-71
2022/12/08 11:27:21;;;;;;;;;47.25;41.25;;;;;6.09;69.42;100121.22;5076409;27;45249;-72